East Tawas, MI (48730)

2:27 PM EDT on March 27, 2017 (GMT -0400)
Tawas Bay Weather | | Change Station

Elev 590 ft 44.28 °N, 83.48 °W | Updated 5 seconds ago

Overcast
Overcast
47.6 °F
Feels Like 44 °F
N
7.0
Wind Variable Wind from WNW
Gusts 7.0 mph

Today
High -- | Low -- °F
--% Chance of Precip.
Yesterday
High -- | Low -- °F
Precip. -- in
Pressure 29.89 in
Visibility 1.0 miles
Clouds Overcast 200 ft
Windchill 44 °F
Dew Point 47 °F
Humidity 97%
Rainfall 0.13 in
Snow Depth Not available.
7:23 AM 7:55 PM
Waning Crescent, 0% visible
METAR KOSC 271813Z AUTO 05006KT 1SM -RA OVC002 06/06 A2989 RMK AO2 T00630057
Pressure 29.89 in
Visibility 1.0 miles
Clouds Overcast 200 ft
Windchill 44 °F
Dew Point 47 °F
Humidity 97%
Rainfall 0.13 in
Snow Depth Not available.
7:23 AM 7:55 PM
Waning Crescent, 0% visible
METAR KOSC 271813Z AUTO 05006KT 1SM -RA OVC002 06/06 A2989 RMK AO2 T00630057

Get Severe Weather Alerts

Thanks for signing up!

Be on the lookout for a verification email in your inbox.

You'll start receiving the daily forecast at 8 AM.

×

10-Day Weather Forecast

Almanac

Astronomy

Mar. 27, 2017 Rise Set
Actual Time
Civil Twilight
Nautical Twilight
Astronomical Twilight
Moon
Length of Visible Light
Length of Day
Tomorrow will be .
, % of the Moon is Illuminated

Today's Extremes

State Highs State Lows

Community

WunderPhotos

Upload Photos

1,962,540 photos uploaded!

WunderBlog® & News

Nearby

Air Quality

  Air Quality AQ Index Pollutant
Not available.

Snow Depth

Station Depth Elevation

Earthquake Activity

City Distance Mag. Time & Date
Minimum magnitude displayed is 2.5.

Earthquake Activity

City Distance Mag. Time & Date
Minimum magnitude displayed is 2.5.

Coastal Water Temperatures

Place Temperature

Stations

Nearby Weather Stations

Station Location Temp. Windchill Dew Point Humidity Wind Precip. Elev Updated Type
                   

Watches & Warnings

There are currently no watches in effect.